Hlavní strana
METAR-TAF:

METAR-TAF

Letiště :

Saint-Denis, Réunion

zeměpisná šířka: 20-53S, zeměpisná délka: 055-31E, výška: 21 m

Aktuální stav počasí

Zpráva byla vytvořena před 20 minutami, v 10:30 UTC
Východojihovýchodní vítr 18 kt
Teplota 25°C
Vlhkost vzduchu 57%
Tlak 1021 hPa
Viditelnost 10 km a více

METAR: FMEE 221030Z AUTO 11018KT 9999 OVC100/// ///TCU 25/16 Q1021 BECMG 11018G28KT SCT040

Čas: 14:50 (10:50 UTC)

Předpověď počasí

Zpráva byla vytvořena před 5 hodinami a 50 minutami, v 05:00 UTC
Předpověď platná od 22 v 06 UTC do 23 v 12 UTC
Východojihovýchodní vítr 18 kt s nárazy do 28 kt
Viditelnost 10 km a více
Polojasno ve výšce 4000 ft
Změna
od 22 v 14 UTC do 22 v 16 UTC
Jihojihovýchodní vítr 8 kt
Změna
od 22 v 23 UTC do 23 v 01 UTC
vítr z různých směrů 2 kt
Změna
od 23 v 05 UTC do 23 v 07 UTC
Východojihovýchodní vítr 18 kt

TAF: FMEE 220500Z 2206/2312 11018G28KT 9999 SCT040 BECMG 2214/2216 15008KT BECMG 2223/2301 VRB02KT BECMG 2305/2307 11018KT

Stav a předpovědi počasí z více než 4 000 letišť (zprávy METAR a TAF).

Červené a žluté tečky na mapě představují dostupné meteorologické stanice.

Když kurzor umístíte na tečku, zobrazí se název stanice.

Pak kliknutím zobrazíte stav a předpověď počasí.

Chcete-li změnit mapu, kliknutím na zelené tlačítko se znaménkem +mapu přiblížíte, kliknutím na zelené tlačítko se znaménkem – mapu oddálíte a kliknutím na zelené šipky přejdete na sousední mapy.


METAR-TAF: